Yale, Nebraska
Current Conditions -  °F | °C
As of 9:53 AM on Tuesday 21 Oct 2014 (Local Time) from KODX Reporting Station
Clear Clear  
Wind Chill: 51°   Ceiling: Unl
Heat Index: 51°   Visibility: NA
Dew Point: 44°   Wind: 5mph
Humidity: 77%   Direction: 100°E
Pressure: 30.05"   Gusts: NA
Location:  41.4381°N, 99.098°W
Report Text: KODX 211453Z AUTO 10004KT CLR 11/07 A3005 RMK AO2 SLP183 T01060067 50004 $
Loading
Personal Weather Stations






























Interactive Weather Map
Tropical Storm Tracking
New forecast layout! Learn more

10-Day Weather Forecast

Advertisements
Track Severe Weather on mobile